createdAt,value
2019-01-12T00:00:23.061Z,101437.11
2019-01-12T00:05:25.529Z,101445.33
2019-01-12T00:10:27.992Z,101450.74
2019-01-12T00:15:30.453Z,101447.12
2019-01-12T00:20:32.926Z,101443.42
2019-01-12T00:25:35.400Z,101450.11
2019-01-12T00:30:37.853Z,101457.64
2019-01-12T00:35:40.303Z,101451.70
2019-01-12T00:40:42.772Z,101440.98
2019-01-12T00:45:45.235Z,101441.17
2019-01-12T00:50:47.711Z,101442.83
2019-01-12T00:55:50.172Z,101439.69
2019-01-12T01:00:52.631Z,101434.56
2019-01-12T01:05:55.094Z,101442.80
2019-01-12T01:10:57.561Z,101456.00
2019-01-12T01:16:00.016Z,101450.11
2019-01-12T01:21:02.499Z,101462.05
2019-01-12T01:26:04.971Z,101463.36
2019-01-12T01:31:07.415Z,101473.02
2019-01-12T01:36:09.870Z,101476.01
2019-01-12T01:41:12.333Z,101477.02
2019-01-12T01:46:14.803Z,101481.37
2019-01-12T01:51:17.281Z,101481.48
2019-01-12T01:56:19.736Z,101479.55
2019-01-12T02:01:22.194Z,101481.78
2019-01-12T02:06:24.715Z,101474.61
2019-01-12T02:11:27.135Z,101479.13
2019-01-12T02:16:29.594Z,101475.31
2019-01-12T02:21:32.072Z,101479.52
2019-01-12T02:26:34.557Z,101491.16
2019-01-12T02:31:37.042Z,101478.84
2019-01-12T02:36:39.552Z,101482.86
2019-01-12T02:41:41.949Z,101481.15
2019-01-12T02:46:44.407Z,101474.61
2019-01-12T02:51:46.873Z,101475.50
2019-01-12T02:56:49.344Z,101470.80
2019-01-12T03:01:51.809Z,101463.48
2019-01-12T03:06:54.277Z,101465.73
2019-01-12T03:11:56.742Z,101462.89
2019-01-12T03:16:59.279Z,101462.27
2019-01-12T03:22:01.685Z,101456.48
2019-01-12T03:27:04.147Z,101451.20
2019-01-12T03:32:06.615Z,101451.60
2019-01-12T03:37:09.059Z,101453.36
2019-01-12T03:42:11.518Z,101449.89
2019-01-12T03:47:13.995Z,101444.23
2019-01-12T03:52:16.471Z,101446.35
2019-01-12T03:57:18.935Z,101439.28
2019-01-12T04:02:21.392Z,101440.83
2019-01-12T04:07:23.854Z,101442.70
2019-01-12T04:12:26.334Z,101438.70
2019-01-12T04:17:28.835Z,101433.05
2019-01-12T04:22:31.295Z,101432.40
2019-01-12T04:27:33.735Z,101440.75
2019-01-12T04:32:36.186Z,101432.51
2019-01-12T04:37:38.650Z,101434.81
2019-01-12T04:42:41.120Z,101430.56
2019-01-12T04:47:43.586Z,101429.26
2019-01-12T04:52:46.045Z,101421.89
2019-01-12T04:57:48.506Z,101415.60
2019-01-12T05:02:50.964Z,101413.25
2019-01-12T05:07:53.422Z,101418.80
2019-01-12T05:12:55.885Z,101418.06
2019-01-12T05:17:58.338Z,101415.36
2019-01-12T05:23:00.812Z,101413.09
2019-01-12T05:28:03.266Z,101408.83
2019-01-12T05:33:05.720Z,101409.94
2019-01-12T05:38:08.191Z,101417.20
2019-01-12T05:43:10.645Z,101414.34
2019-01-12T05:48:13.118Z,101409.47
2019-01-12T05:53:15.573Z,101410.63
2019-01-12T05:58:18.051Z,101414.16
2019-01-12T06:03:20.510Z,101414.75
2019-01-12T06:08:22.974Z,101414.91
2019-01-12T06:13:25.433Z,101413.39
2019-01-12T06:18:27.912Z,101413.50
2019-01-12T06:23:30.363Z,101413.84
2019-01-12T06:28:32.895Z,101414.95
2019-01-12T06:33:35.399Z,101416.91
2019-01-12T06:38:37.897Z,101417.09
2019-01-12T06:43:40.352Z,101414.20
2019-01-12T06:48:42.852Z,101412.31
2019-01-12T06:53:45.313Z,101414.05
2019-01-12T06:58:47.764Z,101411.73
2019-01-12T07:03:50.231Z,101412.08
2019-01-12T07:08:52.709Z,101416.73
2019-01-12T07:13:58.017Z,101429.39
2019-01-12T07:19:00.415Z,101413.23
2019-01-12T07:24:03.453Z,101410.96
2019-01-12T07:29:05.939Z,101410.03
2019-01-12T07:34:08.385Z,101406.79
2019-01-12T07:39:10.866Z,101416.02
2019-01-12T07:44:13.315Z,101426.26
2019-01-12T07:49:15.784Z,101427.36
2019-01-12T07:54:18.251Z,101431.53
2019-01-12T07:59:20.708Z,101433.87
2019-01-12T08:04:23.176Z,101443.75
2019-01-12T08:09:25.639Z,101435.39
2019-01-12T08:14:28.098Z,101448.79
2019-01-12T08:19:30.563Z,101443.45
2019-01-12T08:24:33.008Z,101436.23
2019-01-12T08:29:35.454Z,101433.38
2019-01-12T08:34:37.939Z,101439.49
2019-01-12T08:39:40.397Z,101442.31
2019-01-12T08:44:42.852Z,101432.88
2019-01-12T08:49:45.314Z,101430.84
2019-01-12T08:54:47.791Z,101432.09
2019-01-12T08:59:50.246Z,101426.18
2019-01-12T09:04:52.705Z,101413.41
2019-01-12T09:09:55.174Z,101417.89
2019-01-12T09:14:57.647Z,101412.42
2019-01-12T09:20:00.155Z,101409.66
2019-01-12T09:25:02.610Z,101414.28
2019-01-12T09:30:13.858Z,101406.58
2019-01-12T09:35:16.332Z,101401.50
2019-01-12T09:40:18.942Z,101411.55
2019-01-12T09:45:21.406Z,101395.63
2019-01-12T09:50:23.863Z,101379.37
2019-01-12T09:55:26.333Z,101370.38
2019-01-12T10:00:28.799Z,101365.64
2019-01-12T10:05:31.262Z,101357.44
2019-01-12T10:10:33.723Z,101352.20
2019-01-12T10:15:36.261Z,101345.23
2019-01-12T10:20:38.757Z,101335.02
2019-01-12T10:25:41.232Z,101315.37
2019-01-12T10:30:43.698Z,101308.84
2019-01-12T10:35:46.224Z,101306.25
2019-01-12T10:40:48.686Z,101302.41
2019-01-12T10:45:51.179Z,101312.13
2019-01-12T10:50:53.608Z,101300.12
2019-01-12T10:55:56.071Z,101319.54
2019-01-12T11:00:58.550Z,101331.56
2019-01-12T11:06:01.037Z,101318.64
2019-01-12T11:11:03.513Z,101293.47
2019-01-12T11:16:06.014Z,101276.69
2019-01-12T11:21:08.476Z,101268.40
2019-01-12T11:26:10.958Z,101249.05
2019-01-12T11:31:19.624Z,101233.19
2019-01-12T11:36:15.898Z,101222.31
2019-01-12T11:41:18.357Z,101216.64
2019-01-12T11:46:20.819Z,101206.80
2019-01-12T11:51:23.284Z,101204.81
2019-01-12T11:56:25.755Z,101208.33
2019-01-12T12:01:28.262Z,101202.08
2019-01-12T12:06:30.794Z,101208.25
2019-01-12T12:11:33.258Z,101202.33
2019-01-12T12:16:35.725Z,101199.52
2019-01-12T12:21:38.185Z,101197.61
2019-01-12T12:26:40.665Z,101178.26
2019-01-12T12:31:43.143Z,101172.91
2019-01-12T12:36:45.607Z,101156.03
2019-01-12T12:41:48.095Z,101150.28
2019-01-12T12:46:50.570Z,101140.05
2019-01-12T12:51:53.028Z,101131.11
2019-01-12T12:56:55.504Z,101128.22
2019-01-12T13:01:57.959Z,101122.00
2019-01-12T13:07:00.439Z,101108.14
2019-01-12T13:12:02.918Z,101087.86
2019-01-12T13:17:05.374Z,101062.98
2019-01-12T13:22:07.879Z,101057.75
2019-01-12T13:27:10.331Z,101057.13
2019-01-12T13:32:12.793Z,101053.93
2019-01-12T13:37:15.301Z,101055.50
2019-01-12T13:42:17.777Z,101041.52
2019-01-12T13:47:21.010Z,101028.44
2019-01-12T13:52:22.760Z,101001.35
2019-01-12T13:57:25.213Z,100999.89
2019-01-12T14:02:27.676Z,100993.58
2019-01-12T14:07:30.130Z,100980.51
2019-01-12T14:12:32.604Z,100975.47
2019-01-12T14:17:35.056Z,100993.31
2019-01-12T14:22:37.540Z,100979.85
2019-01-12T14:27:40.037Z,100986.41
2019-01-12T14:32:42.502Z,100981.84
2019-01-12T14:37:45.463Z,100978.63
2019-01-12T14:42:49.759Z,100975.08
2019-01-12T14:47:50.392Z,100970.86
2019-01-12T14:52:52.890Z,100949.27
2019-01-12T14:58:02.046Z,100943.59
2019-01-12T15:02:57.909Z,100946.72
2019-01-12T15:08:00.376Z,100934.83
2019-01-12T15:13:02.868Z,100930.34
2019-01-12T15:18:05.344Z,100898.98
2019-01-12T15:23:07.835Z,100887.41
2019-01-12T15:28:10.305Z,100886.62
2019-01-12T15:33:14.242Z,100864.94
2019-01-12T15:38:15.233Z,100858.14
2019-01-12T15:43:17.697Z,100840.58
2019-01-12T15:48:20.168Z,100832.83
2019-01-12T15:53:22.638Z,100835.02
2019-01-12T15:58:25.135Z,100830.54
2019-01-12T16:03:27.606Z,100828.66
2019-01-12T16:08:30.078Z,100829.70
2019-01-12T16:13:32.542Z,100826.52
2019-01-12T16:18:35.015Z,100832.47
2019-01-12T16:23:37.478Z,100833.27
2019-01-12T16:28:39.945Z,100829.02
2019-01-12T16:33:42.655Z,100804.88
2019-01-12T16:38:44.864Z,100806.69
2019-01-12T16:43:47.332Z,100790.98
2019-01-12T16:48:49.794Z,100784.12
2019-01-12T16:53:52.275Z,100779.09
2019-01-12T16:58:54.764Z,100773.38
2019-01-12T17:03:57.228Z,100779.72
2019-01-12T17:08:59.749Z,100777.02
2019-01-12T17:14:02.212Z,100773.22
2019-01-12T17:19:04.697Z,100764.12
2019-01-12T17:24:07.155Z,100752.77
2019-01-12T17:29:09.606Z,100744.06
2019-01-12T17:34:12.068Z,100735.73
2019-01-12T17:39:14.564Z,100744.06
2019-01-12T17:44:17.051Z,100740.39
2019-01-12T17:49:19.535Z,100734.38
2019-01-12T17:54:21.998Z,100723.52
2019-01-12T17:59:24.480Z,100712.91
2019-01-12T18:04:26.970Z,100706.19
2019-01-12T18:09:29.430Z,100705.63
2019-01-12T18:14:31.900Z,100700.53
2019-01-12T18:19:34.436Z,100698.63
2019-01-12T18:24:36.877Z,100710.04
2019-01-12T18:29:39.364Z,100704.20
2019-01-12T18:34:41.840Z,100697.81
2019-01-12T18:39:44.336Z,100680.31
2019-01-12T18:44:46.751Z,100678.39
2019-01-12T18:49:49.216Z,100670.25
2019-01-12T18:54:51.683Z,100662.17
2019-01-12T18:59:54.130Z,100658.25
2019-01-12T19:04:56.628Z,100654.42
2019-01-12T19:09:59.102Z,100633.42
2019-01-12T19:15:01.575Z,100629.65
2019-01-12T19:20:04.015Z,100621.39
2019-01-12T19:25:06.477Z,100621.61
2019-01-12T19:30:08.949Z,100617.39
2019-01-12T19:35:11.402Z,100608.36
2019-01-12T19:40:13.856Z,100600.61
2019-01-12T19:45:16.330Z,100589.86
2019-01-12T19:50:18.815Z,100591.03
2019-01-12T19:55:21.298Z,100584.49
2019-01-12T20:00:23.773Z,100587.43
2019-01-12T20:05:26.222Z,100574.41
2019-01-12T20:10:28.688Z,100585.67
2019-01-12T20:15:31.162Z,100573.67
2019-01-12T20:20:33.662Z,100575.36
2019-01-12T20:25:36.129Z,100587.03
2019-01-12T20:30:41.293Z,100576.34
2019-01-12T20:36:02.056Z,100573.05
2019-01-12T20:41:10.140Z,100593.20
2019-01-12T20:46:18.774Z,100574.98
2019-01-12T20:51:43.026Z,100579.98
2019-01-12T20:56:54.306Z,100570.62
2019-01-12T21:02:05.563Z,100563.50
2019-01-12T21:07:35.711Z,100559.37
2019-01-12T21:12:58.968Z,100528.53
2019-01-12T21:18:01.443Z,100529.05
2019-01-12T21:23:03.949Z,100516.42
2019-01-12T21:28:06.486Z,100506.53
2019-01-12T21:33:08.943Z,100515.46
2019-01-12T21:38:11.422Z,100524.52
2019-01-12T21:43:13.881Z,100511.52
2019-01-12T21:48:16.358Z,100511.30
2019-01-12T21:53:18.820Z,100508.64
2019-01-12T21:58:21.301Z,100508.62
2019-01-12T22:03:23.788Z,100499.10
2019-01-12T22:08:26.248Z,100501.86
2019-01-12T22:13:28.715Z,100505.88
2019-01-12T22:18:31.209Z,100507.89
2019-01-12T22:23:33.684Z,100498.67
2019-01-12T22:28:36.162Z,100487.51
2019-01-12T22:33:38.656Z,100490.61
2019-01-12T22:38:41.140Z,100491.34
2019-01-12T22:43:43.646Z,100485.36
2019-01-12T22:48:46.126Z,100483.66
2019-01-12T22:53:48.589Z,100479.58
2019-01-12T22:58:51.055Z,100479.18
2019-01-12T23:03:53.613Z,100463.70
2019-01-12T23:08:56.079Z,100459.48
2019-01-12T23:13:58.551Z,100464.56
2019-01-12T23:19:01.029Z,100463.36
2019-01-12T23:24:03.513Z,100456.56
2019-01-12T23:29:05.977Z,100453.97
2019-01-12T23:34:08.561Z,100452.28
2019-01-12T23:39:11.027Z,100457.59
2019-01-12T23:44:15.061Z,100440.73
2019-01-12T23:49:15.974Z,100434.82
2019-01-12T23:54:18.428Z,100439.03
2019-01-12T23:59:20.900Z,100435.29
